Time;durP1;ratioP1;P1;durP2;ratioP2;P2;SDS_P1;SDS_P2;PMS_P1;PMS_P2;Temp;Humidity;BMP_temperature;BMP_pressure;BME280_temperature;BME280_humidity;BME280_pressure;Samples;Min_cycle;Max_cycle;Signal;HPM_P1;HPM_P2
2022/11/12 00:09:03;;;;;;;7.67;5.50;;;;;;;3.26;100.00;99248.53;18358720;32;20061;-63
2022/11/12 00:19:06;;;;;;;8.47;6.30;;;;;;;3.17;100.00;99252.34;18358224;32;20049;-62
2022/11/12 00:29:08;;;;;;;5.87;4.70;;;;;;;3.07;100.00;99246.41;18388459;32;20068;-62
2022/11/12 00:39:10;;;;;;;6.13;4.40;;;;;;;2.99;100.00;99247.34;18559747;32;20045;-62
2022/11/12 00:49:13;;;;;;;11.30;5.53;;;;;;;3.02;100.00;99252.31;18545548;32;20057;-62
2022/11/12 00:59:15;;;;;;;6.73;4.83;;;;;;;3.11;100.00;99245.03;18557032;32;20377;-62
2022/11/12 01:09:25;;;;;;;5.93;4.43;;;;;;;3.26;100.00;99245.06;18559508;32;20088;-62
2022/11/12 01:19:56;;;;;;;5.03;4.43;;;;;;;3.32;100.00;99245.16;18545304;32;20045;-63
2022/11/12 01:30:40;;;;;;;4.93;4.17;;;;;;;3.33;100.00;99248.63;18532107;32;20053;-62
2022/11/12 01:41:08;;;;;;;7.80;4.63;;;;;;;3.31;100.00;99240.81;18558709;32;20331;-62
2022/11/12 01:51:11;;;;;;;6.40;4.73;;;;;;;3.39;100.00;99238.03;18569608;32;20073;-62
2022/11/12 02:02:06;;;;;;;5.90;4.33;;;;;;;3.51;100.00;99234.94;18568036;32;20096;-63
2022/11/12 02:13:56;;;;;;;5.67;4.37;;;;;;;3.59;100.00;99221.44;18548034;32;20342;-62
2022/11/12 02:23:02;;;;;;;5.97;4.27;;;;;;;3.68;100.00;99214.97;18429005;32;20106;-62
2022/11/12 02:33:09;;;;;;;4.83;4.00;;;;;;;3.80;100.00;99214.50;18428362;32;20088;-62
2022/11/12 02:43:16;;;;;;;6.23;4.10;;;;;;;3.95;100.00;99220.62;18427822;32;20057;-62
2022/11/12 02:54:12;;;;;;;5.03;3.87;;;;;;;4.01;100.00;99205.66;18546345;32;20052;-62
2022/11/12 03:05:10;;;;;;;4.75;3.83;;;;;;;4.04;100.00;99198.09;18565208;32;20100;-63
2022/11/12 03:15:22;;;;;;;5.60;4.30;;;;;;;4.06;100.00;99201.37;18564787;32;20108;-62
2022/11/12 03:25:25;;;;;;;4.60;3.57;;;;;;;3.97;100.00;99185.66;18564276;32;20112;-62
2022/11/12 03:35:28;;;;;;;4.57;3.63;;;;;;;3.96;100.00;99184.84;18563686;32;20088;-62
2022/11/12 03:45:31;;;;;;;4.90;4.10;;;;;;;3.93;100.00;99187.88;18562711;32;20069;-62
2022/11/12 03:55:33;;;;;;;5.03;3.87;;;;;;;3.96;100.00;99184.84;18548371;32;20087;-62
2022/11/12 04:26:29;;;;;;;5.00;3.90;;;;;;;3.99;100.00;99162.22;18560816;32;20428;-62
2022/11/12 04:36:32;;;;;;;4.03;3.23;;;;;;;4.03;100.00;99166.97;18421591;32;20099;-63
2022/11/12 04:46:34;;;;;;;4.47;3.40;;;;;;;3.90;100.00;99170.34;18408695;32;20118;-62
2022/11/12 04:56:36;;;;;;;3.60;2.90;;;;;;;3.82;100.00;99177.66;18421337;32;20057;-63
2022/11/12 05:06:51;;;;;;;3.30;2.80;;;;;;;3.80;100.00;99175.19;18478581;32;20090;-62
2022/11/12 05:16:53;;;;;;;4.10;3.13;;;;;;;3.82;100.00;99172.31;18494902;32;20102;-62
2022/11/12 05:26:55;;;;;;;3.47;2.87;;;;;;;3.81;100.00;99171.50;18492400;32;20385;-61
2022/11/12 05:36:59;;;;;;;3.50;3.20;;;;;;;3.78;100.00;99160.31;18505703;32;20120;-62
2022/11/12 05:47:02;;;;;;;3.20;2.63;;;;;;;3.76;100.00;99157.84;18431098;32;20092;-62
2022/11/12 05:57:04;;;;;;;4.20;3.37;;;;;;;3.71;100.00;99150.41;18430637;32;20069;-62
2022/11/12 06:07:06;;;;;;;3.57;2.97;;;;;;;3.68;100.00;99152.59;18429829;32;20067;-62
2022/11/12 06:17:09;;;;;;;3.30;2.70;;;;;;;3.63;100.00;99152.34;18440721;32;20041;-62
2022/11/12 06:27:11;;;;;;;2.67;2.47;;;;;;;3.58;100.00;99160.94;18501484;32;20037;-62
2022/11/12 06:37:14;;;;;;;3.57;2.80;;;;;;;3.55;100.00;99164.00;18501423;32;20096;-62
2022/11/12 06:47:17;;;;;;;3.33;2.63;;;;;;;3.54;100.00;99165.81;18501132;32;20044;-62
2022/11/12 06:57:19;;;;;;;3.30;3.00;;;;;;;3.55;100.00;99172.84;18500111;32;20389;-62
2022/11/12 07:07:21;;;;;;;3.07;2.57;;;;;;;3.65;100.00;99193.13;18558811;32;20454;-62
2022/11/12 07:17:24;;;;;;;3.20;2.57;;;;;;;3.77;100.00;99193.44;18565269;32;20552;-63
2022/11/12 07:27:29;;;;;;;4.17;2.90;;;;;;;3.88;100.00;99203.69;18563842;32;20044;-63
2022/11/12 07:37:33;;;;;;;3.10;2.73;;;;;;;3.94;100.00;99207.44;18557313;32;20057;-62
2022/11/12 07:47:36;;;;;;;3.67;2.93;;;;;;;3.99;100.00;99205.84;18475263;32;20234;-63
2022/11/12 07:57:38;;;;;;;4.60;3.57;;;;;;;4.10;100.00;99217.91;18461761;32;20415;-62
2022/11/12 08:07:40;;;;;;;3.77;3.07;;;;;;;4.28;100.00;99232.72;18485881;32;20061;-64
2022/11/12 08:17:43;;;;;;;3.53;2.60;;;;;;;4.44;100.00;99229.78;18486564;32;20112;-63
2022/11/12 08:27:46;;;;;;;4.03;3.30;;;;;;;4.66;100.00;99240.47;18493704;32;20505;-63
2022/11/12 08:37:48;;;;;;;4.33;2.80;;;;;;;4.88;100.00;99233.25;18492639;32;20049;-63
2022/11/12 08:47:51;;;;;;;5.43;2.93;;;;;;;5.05;100.00;99231.09;18495375;32;20060;-63
2022/11/12 08:57:54;;;;;;;3.50;2.80;;;;;;;5.25;100.00;99220.53;18502039;32;20377;-63
2022/11/12 09:08:04;;;;;;;3.40;2.80;;;;;;;5.50;100.00;99228.09;18420945;32;20057;-63
2022/11/12 09:18:11;;;;;;;3.60;2.90;;;;;;;5.77;100.00;99239.78;18433117;32;20095;-63
2022/11/12 09:28:18;;;;;;;3.40;2.33;;;;;;;6.07;100.00;99245.69;18432917;32;20073;-63
2022/11/12 09:38:22;;;;;;;6.07;4.70;;;;;;;6.51;100.00;99240.84;18480930;32;20069;-63
2022/11/12 09:48:39;;;;;;;4.82;4.00;;;;;;;6.98;100.00;99245.41;18505528;32;20094;-64
2022/11/12 09:58:42;;;;;;;6.30;4.20;;;;;;;7.18;100.00;99251.59;18505657;32;22184;-64
2022/11/12 10:09:04;;;;;;;7.23;4.83;;;;;;;7.51;100.00;99244.47;18569164;32;20060;-64
2022/11/12 10:19:33;;;;;;;10.17;6.93;;;;;;;7.93;100.00;99229.66;18549892;32;20052;-63
2022/11/12 10:29:52;;;;;;;10.20;7.17;;;;;;;8.51;100.00;99235.12;18568235;32;20048;-63
2022/11/12 10:39:55;;;;;;;13.30;8.60;;;;;;;9.01;100.00;99212.78;18527154;32;20117;-64
2022/11/12 10:50:10;;;;;;;10.47;8.40;;;;;;;9.12;100.00;99202.06;18564794;32;20045;-64
2022/11/12 11:00:13;;;;;;;11.43;7.43;;;;;;;9.24;100.00;99198.63;18564501;32;20149;-64
2022/11/12 11:10:29;;;;;;;12.40;8.33;;;;;;;9.47;100.00;99185.28;18563261;32;20040;-63
2022/11/12 11:20:43;;;;;;;13.82;9.95;;;;;;;9.62;100.00;99182.22;18563691;32;20104;-64
2022/11/12 11:31:30;;;;;;;18.95;10.68;;;;;;;9.83;100.00;99156.56;18564414;32;20108;-63
2022/11/12 11:41:46;;;;;;;17.62;10.27;;;;;;;9.98;100.00;99148.06;18171345;32;20082;-63
2022/11/12 11:51:58;;;;;;;12.93;8.98;;;;;;;10.25;100.00;99144.12;18170811;32;20193;-63
2022/11/12 12:02:33;;;;;;;14.70;10.00;;;;;;;10.52;100.00;99133.75;18170159;32;20242;-63
2022/11/12 12:12:38;;;;;;;16.33;9.50;;;;;;;10.61;100.00;99115.31;18326735;32;20048;-63
2022/11/12 12:22:48;;;;;;;13.73;9.55;;;;;;;10.69;100.00;99123.09;18547262;32;20049;-63
2022/11/12 12:33:33;;;;;;;11.70;8.23;;;;;;;10.83;100.00;99108.25;18409573;32;20117;-63
2022/11/12 12:43:51;;;;;;;18.07;11.77;;;;;;;11.09;100.00;99094.47;18421982;32;20065;-63
2022/11/12 12:53:54;;;;;;;15.23;10.85;;;;;;;11.33;100.00;99078.97;18421615;32;20058;-63
2022/11/12 13:04:07;;;;;;;15.52;11.00;;;;;;;11.24;100.00;99069.59;18543744;32;20069;-63
2022/11/12 13:14:34;;;;;;;16.05;11.05;;;;;;;11.15;100.00;99061.81;18559539;32;20401;-63
2022/11/12 13:25:05;;;;;;;20.08;12.90;;;;;;;11.02;100.00;99059.41;18558962;32;20086;-63
2022/11/12 13:35:11;;;;;;;22.50;14.55;;;;;;;10.83;100.00;99059.53;18559321;32;20075;-63
2022/11/12 13:45:15;;;;;;;24.48;15.63;;;;;;;10.49;100.00;99053.91;18567690;32;20049;-63
2022/11/12 13:55:22;;;;;;;27.05;16.75;;;;;;;10.18;100.00;99045.06;18543190;32;20052;-63
2022/11/12 14:05:30;;;;;;;26.83;16.75;;;;;;;10.03;100.00;99057.38;18568982;32;20041;-63
2022/11/12 14:16:02;;;;;;;26.00;16.63;;;;;;;9.70;100.00;99056.81;18569080;32;20095;-62
2022/11/12 14:26:04;;;;;;;25.57;15.13;;;;;;;9.47;100.00;99052.16;18568270;32;20057;-63
2022/11/12 14:36:14;;;;;;;22.90;14.63;;;;;;;9.27;100.00;99036.22;18554032;32;20059;-63
2022/11/12 14:46:44;;;;;;;27.07;16.77;;;;;;;9.00;100.00;99023.06;18552983;32;20063;-63
2022/11/12 14:56:48;;;;;;;25.07;16.90;;;;;;;8.84;100.00;99015.56;18558774;32;20044;-63
2022/11/12 15:06:53;;;;;;;26.27;16.47;;;;;;;8.58;100.00;99010.28;18565636;32;20067;-63
2022/11/12 15:16:56;;;;;;;25.67;16.13;;;;;;;8.40;100.00;99012.91;18565159;32;20130;-63
2022/11/12 15:27:19;;;;;;;27.33;16.80;;;;;;;8.24;100.00;99011.63;18564529;32;20052;-63
2022/11/12 15:37:26;;;;;;;27.87;16.50;;;;;;;8.10;100.00;98986.69;18563459;32;20056;-63
2022/11/12 15:47:29;;;;;;;30.10;17.03;;;;;;;7.91;100.00;98986.63;18562827;32;20113;-63
2022/11/12 15:57:37;;;;;;;27.97;15.50;;;;;;;7.85;100.00;98976.72;18548477;32;20036;-63
2022/11/12 16:07:40;;;;;;;24.57;15.50;;;;;;;7.70;100.00;98974.38;18561725;32;20071;-63
2022/11/12 16:17:43;;;;;;;30.83;17.13;;;;;;;7.62;100.00;98977.34;18561962;32;20391;-63
2022/11/12 16:27:46;;;;;;;27.83;16.57;;;;;;;7.51;100.00;98965.41;18560866;32;20461;-63
2022/11/12 16:37:56;;;;;;;25.37;15.90;;;;;;;7.39;100.00;98959.88;18561067;32;20087;-63
2022/11/12 16:47:59;;;;;;;27.93;16.67;;;;;;;7.32;100.00;98955.56;18421180;32;20077;-63
2022/11/12 16:58:02;;;;;;;27.87;16.10;;;;;;;7.25;100.00;98956.44;18421378;32;20080;-63
2022/11/12 17:08:05;;;;;;;25.87;15.20;;;;;;;7.14;100.00;98965.22;18421110;32;20100;-64
2022/11/12 17:18:08;;;;;;;24.80;15.77;;;;;;;7.14;100.00;98949.09;18448063;32;20111;-63
2022/11/12 17:28:11;;;;;;;21.80;13.90;;;;;;;7.11;100.00;98963.78;18571905;32;20049;-63
2022/11/12 17:38:14;;;;;;;22.90;14.33;;;;;;;7.07;100.00;98948.28;18553217;32;20075;-63
2022/11/12 17:48:18;;;;;;;21.50;14.40;;;;;;;7.10;100.00;98950.56;18568266;32;20073;-63
2022/11/12 17:58:20;;;;;;;40.07;36.93;;;;;;;7.06;100.00;98950.16;18570046;32;20436;-63
2022/11/12 18:08:23;;;;;;;21.50;14.57;;;;;;;6.98;100.00;98922.69;18568553;32;20045;-63
2022/11/12 18:18:29;;;;;;;22.67;14.43;;;;;;;6.99;100.00;98930.53;18568941;32;20373;-63
2022/11/12 18:28:32;;;;;;;24.13;15.90;;;;;;;6.91;100.00;98914.66;18554146;32;20103;-63
2022/11/12 18:38:35;;;;;;;21.67;13.70;;;;;;;6.86;100.00;98906.41;18567942;32;20346;-62
2022/11/12 18:48:39;;;;;;;22.67;13.70;;;;;;;6.81;100.00;98900.84;18567126;32;20049;-63
2022/11/12 18:58:42;;;;;;;23.20;14.63;;;;;;;6.76;100.00;98894.25;18566534;32;20059;-63
2022/11/12 19:08:44;;;;;;;21.93;13.53;;;;;;;6.79;100.00;98885.75;18566009;32;20119;-63
2022/11/12 19:18:50;;;;;;;18.87;12.80;;;;;;;6.70;100.00;98878.16;18565219;32;20056;-63
2022/11/12 19:28:54;;;;;;;19.83;13.13;;;;;;;6.66;100.00;98875.09;18562671;32;20076;-64
2022/11/12 19:38:59;;;;;;;22.30;14.10;;;;;;;6.68;100.00;98866.81;18559287;32;20411;-64
2022/11/12 19:49:01;;;;;;;24.63;15.53;;;;;;;6.63;100.00;98851.31;18548904;32;20061;-63
2022/11/12 19:59:03;;;;;;;18.83;11.87;;;;;;;6.66;100.00;98856.28;18548292;32;20060;-64
2022/11/12 20:09:07;;;;;;;18.40;12.37;;;;;;;6.63;100.00;98843.25;18562377;32;20514;-63
2022/11/12 20:19:10;;;;;;;23.47;13.43;;;;;;;6.67;100.00;98841.78;18561675;32;20060;-63
2022/11/12 20:29:13;;;;;;;20.40;13.23;;;;;;;6.70;100.00;98829.75;18561244;32;20071;-63
2022/11/12 20:39:15;;;;;;;23.57;14.33;;;;;;;6.71;100.00;98836.81;18560976;32;20101;-64
2022/11/12 20:49:18;;;;;;;24.17;14.83;;;;;;;6.72;100.00;98831.19;18563032;32;20342;-64
2022/11/12 20:59:22;;;;;;;18.87;11.93;;;;;;;6.71;100.00;98831.41;18573845;32;20496;-63
2022/11/12 21:09:25;;;;;;;21.70;13.87;;;;;;;6.69;100.00;98822.75;18573573;32;20416;-63
2022/11/12 21:19:28;;;;;;;26.77;17.63;;;;;;;6.74;100.00;98837.19;18566834;32;20102;-64
2022/11/12 21:29:31;;;;;;;22.07;14.07;;;;;;;6.76;100.00;98829.72;18571405;32;20053;-64
2022/11/12 21:39:33;;;;;;;20.70;14.17;;;;;;;6.75;100.00;98809.25;18571150;32;20083;-64
2022/11/12 21:49:35;;;;;;;23.97;15.43;;;;;;;6.78;100.00;98803.47;18543805;32;20040;-64
2022/11/12 21:59:38;;;;;;;25.97;16.20;;;;;;;6.78;100.00;98792.72;18569291;32;20063;-64
2022/11/12 22:09:41;;;;;;;24.93;15.20;;;;;;;6.75;100.00;98771.63;18555659;32;20046;-63
2022/11/12 22:19:43;;;;;;;26.70;15.83;;;;;;;6.70;100.00;98768.78;18554160;32;20369;-64
2022/11/12 22:29:46;;;;;;;21.67;13.40;;;;;;;6.69;100.00;98767.13;18568708;32;20085;-63
2022/11/12 22:39:48;;;;;;;21.40;12.93;;;;;;;6.65;100.00;98749.78;18567730;32;20071;-64
2022/11/12 22:49:51;;;;;;;18.43;11.40;;;;;;;6.64;100.00;98741.97;18553049;32;20349;-63
2022/11/12 22:59:53;;;;;;;19.87;12.33;;;;;;;6.65;100.00;98730.16;18552190;32;20079;-63
2022/11/12 23:09:56;;;;;;;17.03;10.87;;;;;;;6.67;100.00;98718.13;18362578;32;20057;-63
2022/11/12 23:19:58;;;;;;;15.97;9.90;;;;;;;6.65;100.00;98711.34;18361657;32;20400;-64
2022/11/12 23:30:01;;;;;;;19.73;12.47;;;;;;;6.65;100.00;98704.09;18349088;32;20404;-64
2022/11/12 23:40:04;;;;;;;15.33;10.73;;;;;;;6.60;100.00;98698.56;18390583;32;20097;-63
2022/11/12 23:50:07;;;;;;;20.00;11.90;;;;;;;6.60;100.00;98691.34;18563429;32;20053;-63
